Time;durP1;ratioP1;P1;durP2;ratioP2;P2;SDS_P1;SDS_P2;PMS_P1;PMS_P2;Temp;Humidity;BMP_temperature;BMP_pressure;BME280_temperature;BME280_humidity;BME280_pressure;Samples;Min_cycle;Max_cycle;Signal;HPM_P1;HPM_P2
2023/09/05 00:01:33;;;;;;;;;;;;;;;;;;7372705;19;2099;-68
2023/09/05 00:04:01;;;;;;;;;;;;;;;;;;7372836;19;1631;-68
2023/09/05 00:06:29;;;;;;;;;;;;;;;;;;7370209;19;1650;-67
2023/09/05 00:08:57;;;;;;;;;;;;;;;;;;7369191;19;1899;-68
2023/09/05 00:11:25;;;;;;;;;;;;;;;;;;7371403;19;1466;-68
2023/09/05 00:13:53;;;;;;;;;;;;;;;;;;7366341;19;1849;-67
2023/09/05 00:16:21;;;;;;;;;;;;;;;;;;7367853;19;1352;-67
2023/09/05 00:18:50;;;;;;;;;;;;;;;;;;7367142;19;1803;-68
2023/09/05 00:21:20;;;;;;;;;;;;;;;;;;7369703;19;1671;-67
2023/09/05 00:23:48;;;;;;;;;;;;;;;;;;7371885;19;1467;-66
2023/09/05 00:26:14;;;;;;;;;;;;;;;;;;7366973;19;1375;-67
2023/09/05 00:28:43;;;;;;;;;;;;;;;;;;7368766;19;1640;-67
2023/09/05 00:31:11;;;;;;;;;;;;;;;;;;7372362;19;1246;-66
2023/09/05 00:33:39;;;;;;;;;;;;;;;;;;7366612;19;1850;-67
2023/09/05 00:36:08;;;;;;;;;;;;;;;;;;7368887;19;1853;-67
2023/09/05 00:38:36;;;;;;;;;;;;;;;;;;7369840;19;1660;-66
2023/09/05 00:41:05;;;;;;;;;;;;;;;;;;7367639;19;736;-67
2023/09/05 00:43:33;;;;;;;;;;;;;;;;;;7365996;19;1718;-67
2023/09/05 00:46:01;;;;;;;;;;;;;;;;;;7369858;19;1666;-67
2023/09/05 00:48:30;;;;;;;;;;;;;;;;;;7362769;19;1785;-68
2023/09/05 00:50:58;;;;;;;;;;;;;;;;;;7366995;19;1972;-67
2023/09/05 00:53:27;;;;;;;;;;;;;;;;;;7367141;19;1896;-67
2023/09/05 00:55:55;;;;;;;;;;;;;;;;;;7370346;19;1679;-68
2023/09/05 00:58:23;;;;;;;;;;;;;;;;;;7361872;19;1948;-68
2023/09/05 01:00:51;;;;;;;;;;;;;;;;;;7368692;19;2096;-67
2023/09/05 01:03:19;;;;;;;;;;;;;;;;;;7366306;19;1755;-66
2023/09/05 01:05:48;;;;;;;;;;;;;;;;;;7371495;19;1468;-67
2023/09/05 01:08:16;;;;;;;;;;;;;;;;;;7368865;19;1620;-67
2023/09/05 01:10:46;;;;;;;;;;;;;;;;;;7368295;19;1642;-67
2023/09/05 01:13:15;;;;;;;;;;;;;;;;;;7370736;19;1838;-66
2023/09/05 01:15:44;;;;;;;;;;;;;;;;;;7366536;19;822;-67
2023/09/05 01:18:13;;;;;;;;;;;;;;;;;;7363381;19;1964;-67
2023/09/05 01:20:41;;;;;;;;;;;;;;;;;;7364770;19;1886;-68
2023/09/05 01:23:10;;;;;;;;;;;;;;;;;;7366092;19;2002;-67
2023/09/05 01:25:38;;;;;;;;;;;;;;;;;;7367001;19;1679;-66
2023/09/05 01:28:11;;;;;;;;;;;;;;;;;;7365940;19;1411;-67
2023/09/05 01:30:39;;;;;;;;;;;;;;;;;;7367381;19;1944;-67
2023/09/05 01:33:08;;;;;;;;;;;;;;;;;;7369868;19;1865;-67
2023/09/05 01:35:36;;;;;;;;;;;;;;;;;;7363580;19;1985;-66
2023/09/05 01:38:04;;;;;;;;;;;;;;;;;;7366177;19;1857;-66
2023/09/05 01:40:32;;;;;;;;;;;;;;;;;;7367547;19;1596;-65
2023/09/05 01:43:00;;;;;;;;;;;;;;;;;;7367481;19;1600;-65
2023/09/05 01:45:28;;;;;;;;;;;;;;;;;;7366955;19;1565;-66
2023/09/05 01:47:57;;;;;;;;;;;;;;;;;;7361660;19;1345;-66
2023/09/05 01:50:25;;;;;;;;;;;;;;;;;;7366140;19;1838;-66
2023/09/05 01:52:53;;;;;;;;;;;;;;;;;;7365359;19;1763;-66
2023/09/05 01:55:21;;;;;;;;;;;;;;;;;;7364441;19;1858;-66
2023/09/05 01:57:49;;;;;;;;;;;;;;;;;;7365500;19;1373;-65
2023/09/05 02:00:18;;;;;;;;;;;;;;;;;;7364022;19;1897;-66
2023/09/05 02:02:46;;;;;;;;;;;;;;;;;;7365846;19;2274;-66
2023/09/05 02:05:17;;;;;;;;;;;;;;;;;;7365370;19;1962;-66
2023/09/05 02:07:45;;;;;;;;;;;;;;;;;;7364802;19;1942;-66
2023/09/05 02:10:13;;;;;;;;;;;;;;;;;;7366982;19;1640;-66
2023/09/05 02:12:41;;;;;;;;;;;;;;;;;;7364936;19;1946;-66
2023/09/05 02:15:10;;;;;;;;;;;;;;;;;;7364803;19;1841;-66
2023/09/05 02:17:38;;;;;;;;;;;;;;;;;;7365350;19;1725;-66
2023/09/05 02:20:06;;;;;;;;;;;;;;;;;;7364144;19;2096;-66
2023/09/05 02:22:35;;;;;;;;;;;;;;;;;;7366475;19;2184;-67
2023/09/05 02:25:03;;;;;;;;;;;;;;;;;;7366282;19;1675;-65
2023/09/05 02:27:31;;;;;;;;;;;;;;;;;;7360114;19;1318;-66
2023/09/05 02:30:01;;;;;;;;;;;;;;;;;;7361281;19;874;-66
2023/09/05 02:32:29;;;;;;;;;;;;;;;;;;7367027;19;1925;-66
2023/09/05 02:34:57;;;;;;;;;;;;;;;;;;7361572;19;2191;-67
2023/09/05 02:37:26;;;;;;;;;;;;;;;;;;7363224;19;1505;-67
2023/09/05 02:39:54;;;;;;;;;;;;;;;;;;7369910;19;1800;-67
2023/09/05 02:42:22;;;;;;;;;;;;;;;;;;7373029;19;1473;-67
2023/09/05 02:44:50;;;;;;;;;;;;;;;;;;7368876;19;794;-67
2023/09/05 02:47:18;;;;;;;;;;;;;;;;;;7368997;19;2029;-65
2023/09/05 02:49:46;;;;;;;;;;;;;;;;;;7370808;19;1591;-66
2023/09/05 02:52:14;;;;;;;;;;;;;;;;;;7373373;19;1748;-66
2023/09/05 02:54:40;;;;;;;;;;;;;;;;;;7369432;19;1861;-66
2023/09/05 02:57:08;;;;;;;;;;;;;;;;;;7373025;19;1735;-67
2023/09/05 02:59:36;;;;;;;;;;;;;;;;;;7368412;19;1606;-66
2023/09/05 03:02:04;;;;;;;;;;;;;;;;;;7372490;19;1594;-66
2023/09/05 03:04:33;;;;;;;;;;;;;;;;;;7371574;19;1946;-67
2023/09/05 03:07:01;;;;;;;;;;;;;;;;;;7370905;19;1669;-66
2023/09/05 03:09:29;;;;;;;;;;;;;;;;;;7373840;19;1580;-67
2023/09/05 03:11:58;;;;;;;;;;;;;;;;;;7371387;19;1870;-67
2023/09/05 03:14:26;;;;;;;;;;;;;;;;;;7371987;19;1842;-67
2023/09/05 03:16:54;;;;;;;;;;;;;;;;;;7373192;19;1770;-67
2023/09/05 03:19:22;;;;;;;;;;;;;;;;;;7369952;19;1924;-67
2023/09/05 03:21:51;;;;;;;;;;;;;;;;;;7369716;19;1723;-67
2023/09/05 03:24:21;;;;;;;;;;;;;;;;;;7369075;19;1665;-66
2023/09/05 03:26:49;;;;;;;;;;;;;;;;;;7370555;19;1793;-66
2023/09/05 03:29:17;;;;;;;;;;;;;;;;;;7369033;19;2155;-66
2023/09/05 03:31:46;;;;;;;;;;;;;;;;;;7371855;19;1817;-66
2023/09/05 03:34:17;;;;;;;;;;;;;;;;;;7370531;19;1861;-67
2023/09/05 03:36:45;;;;;;;;;;;;;;;;;;7369417;19;1813;-65
2023/09/05 03:39:14;;;;;;;;;;;;;;;;;;7371870;19;1791;-66
2023/09/05 03:41:42;;;;;;;;;;;;;;;;;;7370784;19;1662;-66
2023/09/05 03:44:10;;;;;;;;;;;;;;;;;;7372389;19;1423;-66
2023/09/05 03:46:38;;;;;;;;;;;;;;;;;;7367675;19;2101;-66
2023/09/05 03:49:06;;;;;;;;;;;;;;;;;;7370391;19;2058;-66
2023/09/05 03:51:32;;;;;;;;;;;;;;;;;;7370759;19;2061;-66
2023/09/05 03:54:00;;;;;;;;;;;;;;;;;;7368494;19;1872;-66
2023/09/05 03:56:29;;;;;;;;;;;;;;;;;;7372192;19;1824;-66
2023/09/05 03:58:57;;;;;;;;;;;;;;;;;;7372074;19;1687;-66
2023/09/05 04:01:25;;;;;;;;;;;;;;;;;;7364575;19;1952;-67
2023/09/05 04:03:53;;;;;;;;;;;;;;;;;;7369215;19;1987;-68
2023/09/05 04:06:21;;;;;;;;;;;;;;;;;;7369283;19;1497;-67
2023/09/05 04:08:49;;;;;;;;;;;;;;;;;;7367883;19;1908;-66
2023/09/05 04:11:18;;;;;;;;;;;;;;;;;;7370104;19;1652;-67
2023/09/05 04:13:46;;;;;;;;;;;;;;;;;;7371393;19;1851;-67
2023/09/05 04:16:14;;;;;;;;;;;;;;;;;;7366232;19;1703;-66
2023/09/05 04:18:42;;;;;;;;;;;;;;;;;;7368865;19;1502;-66
2023/09/05 04:21:11;;;;;;;;;;;;;;;;;;7371411;19;1864;-66
2023/09/05 04:23:39;;;;;;;;;;;;;;;;;;7372034;19;1342;-67
2023/09/05 04:26:07;;;;;;;;;;;;;;;;;;7367976;19;2179;-66
2023/09/05 04:28:35;;;;;;;;;;;;;;;;;;7364319;19;1897;-66
2023/09/05 04:31:03;;;;;;;;;;;;;;;;;;7369465;19;1807;-66
2023/09/05 04:33:37;;;;;;;;;;;;;;;;;;7371722;19;1198;-66
2023/09/05 04:36:05;;;;;;;;;;;;;;;;;;7364140;19;1884;-66
2023/09/05 04:38:33;;;;;;;;;;;;;;;;;;7363992;19;2104;-66
2023/09/05 04:41:01;;;;;;;;;;;;;;;;;;7372084;19;1713;-66
2023/09/05 04:43:29;;;;;;;;;;;;;;;;;;7371593;19;1698;-66
2023/09/05 04:45:57;;;;;;;;;;;;;;;;;;7370029;19;1912;-66
2023/09/05 04:48:26;;;;;;;;;;;;;;;;;;7369121;19;1824;-66
2023/09/05 04:50:54;;;;;;;;;;;;;;;;;;7370474;19;1675;-66
2023/09/05 04:53:22;;;;;;;;;;;;;;;;;;7371752;19;1660;-66
2023/09/05 04:55:51;;;;;;;;;;;;;;;;;;7369212;19;1842;-66
2023/09/05 04:58:19;;;;;;;;;;;;;;;;;;7366067;19;1667;-66
2023/09/05 05:00:49;;;;;;;;;;;;;;;;;;7370564;19;1853;-66
2023/09/05 05:03:17;;;;;;;;;;;;;;;;;;7374604;19;1318;-66
2023/09/05 05:05:48;;;;;;;;;;;;;;;;;;7371468;19;1793;-67
2023/09/05 05:08:16;;;;;;;;;;;;;;;;;;7370041;19;1389;-66
2023/09/05 05:10:44;;;;;;;;;;;;;;;;;;7368573;19;2052;-66
2023/09/05 05:13:13;;;;;;;;;;;;;;;;;;7370019;19;2030;-66
2023/09/05 05:15:41;;;;;;;;;;;;;;;;;;7367900;19;2074;-67
2023/09/05 05:18:09;;;;;;;;;;;;;;;;;;7365790;19;2025;-66
2023/09/05 05:20:37;;;;;;;;;;;;;;;;;;7372168;19;1433;-67
2023/09/05 05:23:05;;;;;;;;;;;;;;;;;;7368170;19;2047;-67
2023/09/05 05:25:34;;;;;;;;;;;;;;;;;;7370239;19;1873;-67
2023/09/05 05:28:02;;;;;;;;;;;;;;;;;;7365060;19;1788;-67
2023/09/05 05:30:30;;;;;;;;;;;;;;;;;;7368474;19;2077;-66
2023/09/05 05:32:58;;;;;;;;;;;;;;;;;;7369355;19;1703;-66
2023/09/05 05:35:26;;;;;;;;;;;;;;;;;;7368970;19;1867;-66
2023/09/05 05:37:54;;;;;;;;;;;;;;;;;;7362197;19;2389;-68
2023/09/05 05:40:22;;;;;;;;;;;;;;;;;;7365488;19;2099;-67
2023/09/05 05:42:51;;;;;;;;;;;;;;;;;;7367565;19;1729;-67
2023/09/05 05:45:19;;;;;;;;;;;;;;;;;;7369751;19;2065;-66
2023/09/05 05:47:47;;;;;;;;;;;;;;;;;;7367997;19;1328;-67
2023/09/05 05:50:15;;;;;;;;;;;;;;;;;;7369255;19;1512;-66
2023/09/05 05:52:45;;;;;;;;;;;;;;;;;;7366200;19;1943;-66
2023/09/05 05:55:13;;;;;;;;;;;;;;;;;;7366001;19;1853;-66
2023/09/05 05:57:42;;;;;;;;;;;;;;;;;;7365185;19;1809;-67
2023/09/05 06:00:10;;;;;;;;;;;;;;;;;;7367338;19;1655;-67
2023/09/05 06:02:41;;;;;;;;;;;;;;;;;;7364802;19;803;-68
2023/09/05 06:05:10;;;;;;;;;;;;;;;;;;7366312;19;875;-67
2023/09/05 06:07:38;;;;;;;;;;;;;;;;;;7368405;19;1384;-67
2023/09/05 06:10:06;;;;;;;;;;;;;;;;;;7370027;19;1666;-66
2023/09/05 06:12:34;;;;;;;;;;;;;;;;;;7367679;19;785;-66
2023/09/05 06:15:03;;;;;;;;;;;;;;;;;;7372561;19;1837;-67
2023/09/05 06:17:31;;;;;;;;;;;;;;;;;;7370448;19;1282;-67
2023/09/05 06:19:59;;;;;;;;;;;;;;;;;;7369966;19;2394;-67
2023/09/05 06:22:27;;;;;;;;;;;;;;;;;;7371370;19;1616;-66
2023/09/05 06:24:55;;;;;;;;;;;;;;;;;;7373425;19;1972;-67
2023/09/05 06:27:23;;;;;;;;;;;;;;;;;;7372549;19;1672;-67
2023/09/05 06:29:51;;;;;;;;;;;;;;;;;;7372698;19;1955;-65
2023/09/05 06:32:20;;;;;;;;;;;;;;;;;;7374637;19;2139;-65
2023/09/05 06:34:48;;;;;;;;;;;;;;;;;;7371813;19;1822;-65
2023/09/05 06:37:16;;;;;;;;;;;;;;;;;;7375746;19;1875;-66
2023/09/05 06:39:44;;;;;;;;;;;;;;;;;;7370654;19;1874;-66
2023/09/05 06:42:13;;;;;;;;;;;;;;;;;;7376209;19;1511;-66
2023/09/05 06:44:44;;;;;;;;;;;;;;;;;;7372723;19;1799;-67
2023/09/05 06:47:12;;;;;;;;;;;;;;;;;;7374040;19;1790;-67
2023/09/05 06:49:40;;;;;;;;;;;;;;;;;;7372861;19;1561;-66
2023/09/05 06:52:09;;;;;;;;;;;;;;;;;;7374104;19;1494;-66
2023/09/05 06:54:37;;;;;;;;;;;;;;;;;;7371493;19;1837;-66
2023/09/05 06:57:08;;;;;;;;;;;;;;;;;;7370405;19;1337;-66
2023/09/05 06:59:36;;;;;;;;;;;;;;;;;;7370732;19;746;-66
2023/09/05 07:02:04;;;;;;;;;;;;;;;;;;7373345;19;1689;-66
2023/09/05 07:04:34;;;;;;;;;;;;;;;;;;7370741;19;1700;-66
2023/09/05 07:07:03;;;;;;;;;;;;;;;;;;7372214;19;1834;-66
2023/09/05 07:09:31;;;;;;;;;;;;;;;;;;7370954;19;2224;-67
2023/09/05 07:11:59;;;;;;;;;;;;;;;;;;7373352;19;1800;-66
2023/09/05 07:14:27;;;;;;;;;;;;;;;;;;7371546;19;1480;-65
2023/09/05 07:16:55;;;;;;;;;;;;;;;;;;7368521;19;1837;-66
2023/09/05 07:19:24;;;;;;;;;;;;;;;;;;7368927;19;1850;-66
2023/09/05 07:21:52;;;;;;;;;;;;;;;;;;7373855;19;1724;-66
2023/09/05 07:24:20;;;;;;;;;;;;;;;;;;7368153;19;1990;-66
2023/09/05 07:26:48;;;;;;;;;;;;;;;;;;7369396;19;1895;-67
2023/09/05 07:29:16;;;;;;;;;;;;;;;;;;7370217;19;1832;-66
2023/09/05 07:31:44;;;;;;;;;;;;;;;;;;7370506;19;1941;-65
2023/09/05 07:34:13;;;;;;;;;;;;;;;;;;7372573;19;1644;-66
2023/09/05 07:36:42;;;;;;;;;;;;;;;;;;7369385;19;2020;-66
2023/09/05 07:39:10;;;;;;;;;;;;;;;;;;7372596;19;1515;-66
2023/09/05 07:41:38;;;;;;;;;;;;;;;;;;7371173;19;2004;-66
2023/09/05 07:44:07;;;;;;;;;;;;;;;;;;7371468;19;1807;-66
2023/09/05 07:46:35;;;;;;;;;;;;;;;;;;7371531;19;1879;-66
2023/09/05 07:49:05;;;;;;;;;;;;;;;;;;7372068;19;1784;-66
2023/09/05 07:51:33;;;;;;;;;;;;;;;;;;7371866;19;1656;-67
2023/09/05 07:54:01;;;;;;;;;;;;;;;;;;7373890;19;1645;-66
2023/09/05 07:56:31;;;;;;;;;;;;;;;;;;7367187;19;2077;-66
2023/09/05 07:58:59;;;;;;;;;;;;;;;;;;7371566;19;1483;-67
2023/09/05 08:01:27;;;;;;;;;;;;;;;;;;7369670;19;1726;-66
2023/09/05 08:03:56;;;;;;;;;;;;;;;;;;7371345;19;1799;-67
2023/09/05 08:06:24;;;;;;;;;;;;;;;;;;7371050;19;2029;-66
2023/09/05 08:08:52;;;;;;;;;;;;;;;;;;7368101;19;1799;-66
2023/09/05 08:11:20;;;;;;;;;;;;;;;;;;7370556;19;2086;-66
2023/09/05 08:13:48;;;;;;;;;;;;;;;;;;7372400;19;1537;-66
2023/09/05 08:16:16;;;;;;;;;;;;;;;;;;7365157;19;1848;-66
2023/09/05 08:18:45;;;;;;;;;;;;;;;;;;7367669;19;2158;-66
2023/09/05 08:21:13;;;;;;;;;;;;;;;;;;7372358;19;1723;-66
2023/09/05 08:23:41;;;;;;;;;;;;;;;;;;7372000;19;1714;-66
2023/09/05 08:26:10;;;;;;;;;;;;;;;;;;7368767;19;825;-66
2023/09/05 08:28:43;;;;;;;;;;;;;;;;;;7367263;19;2125;-67
2023/09/05 08:31:11;;;;;;;;;;;;;;;;;;7369145;19;1671;-67
2023/09/05 08:33:39;;;;;;;;;;;;;;;;;;7371070;19;1741;-67
2023/09/05 08:36:09;;;;;;;;;;;;;;;;;;7370581;19;1850;-67
2023/09/05 08:38:37;;;;;;;;;;;;;;;;;;7368599;19;1330;-67
2023/09/05 08:41:06;;;;;;;;;;;;;;;;;;7370948;19;1718;-66
2023/09/05 08:43:34;;;;;;;;;;;;;;;;;;7371432;19;1687;-65
2023/09/05 08:46:03;;;;;;;;;;;;;;;;;;7367842;19;2023;-66
2023/09/05 08:48:31;;;;;;;;;;;;;;;;;;7367155;19;1708;-66
2023/09/05 08:50:59;;;;;;;;;;;;;;;;;;7368660;19;825;-66
2023/09/05 08:53:28;;;;;;;;;;;;;;;;;;7368316;19;811;-67
2023/09/05 08:55:57;;;;;;;;;;;;;;;;;;7366725;19;1842;-66
2023/09/05 08:58:25;;;;;;;;;;;;;;;;;;7365849;19;2127;-66
2023/09/05 09:00:53;;;;;;;;;;;;;;;;;;7369177;19;1746;-67
2023/09/05 09:03:21;;;;;;;;;;;;;;;;;;7368900;19;2070;-66
2023/09/05 09:05:49;;;;;;;;;;;;;;;;;;7371035;19;1629;-67
2023/09/05 09:08:19;;;;;;;;;;;;;;;;;;7364307;19;1262;-66
2023/09/05 09:10:47;;;;;;;;;;;;;;;;;;7370780;19;2299;-66
2023/09/05 09:13:15;;;;;;;;;;;;;;;;;;7371990;19;1638;-66
2023/09/05 09:15:44;;;;;;;;;;;;;;;;;;7366812;19;1850;-68
2023/09/05 09:18:12;;;;;;;;;;;;;;;;;;7365883;19;1891;-67
2023/09/05 09:20:40;;;;;;;;;;;;;;;;;;7367955;19;1833;-69
2023/09/05 09:23:09;;;;;;;;;;;;;;;;;;7369775;19;1707;-67
2023/09/05 09:25:37;;;;;;;;;;;;;;;;;;7369809;19;2078;-65
2023/09/05 09:28:05;;;;;;;;;;;;;;;;;;7364015;19;2103;-66
2023/09/05 09:30:33;;;;;;;;;;;;;;;;;;7368932;19;1669;-65
2023/09/05 09:33:01;;;;;;;;;;;;;;;;;;7369049;19;1785;-65
2023/09/05 09:35:30;;;;;;;;;;;;;;;;;;7369830;19;1857;-65
2023/09/05 09:37:58;;;;;;;;;;;;;;;;;;7365721;19;1723;-65
2023/09/05 09:40:26;;;;;;;;;;;;;;;;;;7365949;19;1683;-65
2023/09/05 09:42:54;;;;;;;;;;;;;;;;;;7369883;19;1913;-66
2023/09/05 09:45:25;;;;;;;;;;;;;;;;;;7369526;19;1703;-67
2023/09/05 09:47:53;;;;;;;;;;;;;;;;;;7364424;19;1782;-68
2023/09/05 09:50:22;;;;;;;;;;;;;;;;;;7368058;19;1570;-66
2023/09/05 09:52:50;;;;;;;;;;;;;;;;;;7370323;19;1414;-67
2023/09/05 09:55:18;;;;;;;;;;;;;;;;;;7366119;19;760;-66
2023/09/05 09:57:46;;;;;;;;;;;;;;;;;;7362603;19;1850;-67
2023/09/05 10:00:15;;;;;;;;;;;;;;;;;;7365195;19;843;-67
2023/09/05 10:02:43;;;;;;;;;;;;;;;;;;7368503;19;1666;-68
2023/09/05 10:05:11;;;;;;;;;;;;;;;;;;7369899;19;1394;-68
2023/09/05 10:07:40;;;;;;;;;;;;;;;;;;7364471;19;1370;-67
2023/09/05 10:10:09;;;;;;;;;;;;;;;;;;7362873;19;1591;-67
2023/09/05 10:12:37;;;;;;;;;;;;;;;;;;7366415;19;2088;-67
2023/09/05 10:15:05;;;;;;;;;;;;;;;;;;7368049;19;1774;-66
2023/09/05 10:17:34;;;;;;;;;;;;;;;;;;7364630;19;2057;-67
2023/09/05 10:20:02;;;;;;;;;;;;;;;;;;7368829;19;2129;-66
2023/09/05 10:22:30;;;;;;;;;;;;;;;;;;7365634;19;2095;-67
2023/09/05 10:24:59;;;;;;;;;;;;;;;;;;7364311;19;2062;-68
2023/09/05 10:27:28;;;;;;;;;;;;;;;;;;7366056;19;1955;-68
2023/09/05 10:29:56;;;;;;;;;;;;;;;;;;7371940;19;1855;-68
2023/09/05 10:32:24;;;;;;;;;;;;;;;;;;7370820;19;2172;-70
2023/09/05 10:34:54;;;;;;;;;;;;;;;;;;7375003;19;1356;-69
2023/09/05 10:37:22;;;;;;;;;;;;;;;;;;7366598;19;2021;-68
2023/09/05 10:39:50;;;;;;;;;;;;;;;;;;7371744;19;1960;-67
2023/09/05 10:42:19;;;;;;;;;;;;;;;;;;7373579;19;1547;-69
2023/09/05 10:44:47;;;;;;;;;;;;;;;;;;7366469;19;2143;-69
2023/09/05 10:47:15;;;;;;;;;;;;;;;;;;7369811;19;1887;-69
2023/09/05 10:49:43;;;;;;;;;;;;;;;;;;7369650;19;1663;-68
2023/09/05 10:52:11;;;;;;;;;;;;;;;;;;7368784;19;1818;-68
2023/09/05 10:54:40;;;;;;;;;;;;;;;;;;7371800;19;1163;-69
2023/09/05 10:57:08;;;;;;;;;;;;;;;;;;7373443;19;1838;-69
2023/09/05 10:59:36;;;;;;;;;;;;;;;;;;7370997;19;794;-69
2023/09/05 11:02:06;;;;;;;;;;;;;;;;;;7377037;19;1873;-69
2023/09/05 11:04:34;;;;;;;;;;;;;;;;;;7382953;19;1493;-70
2023/09/05 11:07:00;;;;;;;;;;;;;;;;;;7379228;19;1953;-69
2023/09/05 11:09:29;;;;;;;;;;;;;;;;;;7376386;19;1687;-69
2023/09/05 11:11:57;;;;;;;;;;;;;;;;;;7378140;19;1544;-68
2023/09/05 11:14:26;;;;;;;;;;;;;;;;;;7375009;19;1857;-69
2023/09/05 11:16:56;;;;;;;;;;;;;;;;;;7377120;19;2051;-68
2023/09/05 11:19:24;;;;;;;;;;;;;;;;;;7378205;19;1676;-69
2023/09/05 11:21:52;;;;;;;;;;;;;;;;;;7378139;19;2001;-70
2023/09/05 11:24:20;;;;;;;;;;;;;;;;;;7379872;19;1482;-69
2023/09/05 11:26:49;;;;;;;;;;;;;;;;;;7372982;19;1707;-69
2023/09/05 11:29:19;;;;;;;;;;;;;;;;;;7373962;19;2036;-70
2023/09/05 11:31:47;;;;;;;;;;;;;;;;;;7375036;19;1917;-69
2023/09/05 11:34:15;;;;;;;;;;;;;;;;;;7375959;19;1352;-69
2023/09/05 11:36:44;;;;;;;;;;;;;;;;;;7372402;19;1810;-69
2023/09/05 11:39:13;;;;;;;;;;;;;;;;;;7373760;19;880;-69
2023/09/05 11:41:42;;;;;;;;;;;;;;;;;;7373522;19;1670;-69
2023/09/05 11:44:10;;;;;;;;;;;;;;;;;;7378653;19;1876;-69
2023/09/05 11:46:40;;;;;;;;;;;;;;;;;;7377878;19;1728;-69
2023/09/05 11:49:09;;;;;;;;;;;;;;;;;;7379248;19;1621;-67
2023/09/05 11:51:37;;;;;;;;;;;;;;;;;;7376732;19;1738;-70
2023/09/05 11:54:05;;;;;;;;;;;;;;;;;;7375432;19;1969;-69
2023/09/05 11:56:33;;;;;;;;;;;;;;;;;;7375220;19;1818;-69
2023/09/05 11:59:01;;;;;;;;;;;;;;;;;;7373944;19;2075;-69
2023/09/05 12:01:30;;;;;;;;;;;;;;;;;;7376087;19;2013;-69
2023/09/05 12:03:58;;;;;;;;;;;;;;;;;;7376759;19;1475;-69
2023/09/05 12:06:26;;;;;;;;;;;;;;;;;;7373787;19;2169;-69
2023/09/05 12:08:55;;;;;;;;;;;;;;;;;;7374539;19;1775;-69
2023/09/05 12:11:23;;;;;;;;;;;;;;;;;;7376007;19;1120;-69
2023/09/05 12:13:51;;;;;;;;;;;;;;;;;;7374086;19;1835;-68
2023/09/05 12:16:20;;;;;;;;;;;;;;;;;;7375077;19;1893;-67
2023/09/05 12:18:48;;;;;;;;;;;;;;;;;;7375777;19;1306;-70
2023/09/05 12:21:16;;;;;;;;;;;;;;;;;;7373807;19;805;-68
2023/09/05 12:23:45;;;;;;;;;;;;;;;;;;7373830;19;919;-67
2023/09/05 12:26:13;;;;;;;;;;;;;;;;;;7372775;19;1937;-67
2023/09/05 12:28:41;;;;;;;;;;;;;;;;;;7371605;19;2095;-69
2023/09/05 12:31:09;;;;;;;;;;;;;;;;;;7375657;19;1387;-69
2023/09/05 12:33:37;;;;;;;;;;;;;;;;;;7373066;19;2082;-69
2023/09/05 12:36:06;;;;;;;;;;;;;;;;;;7384154;19;1483;-69
2023/09/05 12:38:34;;;;;;;;;;;;;;;;;;7374865;19;2173;-69
2023/09/05 12:41:02;;;;;;;;;;;;;;;;;;7376718;19;1933;-69
2023/09/05 12:43:30;;;;;;;;;;;;;;;;;;7374534;19;2121;-69
2023/09/05 12:45:58;;;;;;;;;;;;;;;;;;7374140;19;1908;-70
2023/09/05 12:48:26;;;;;;;;;;;;;;;;;;7368266;19;1687;-69
2023/09/05 12:50:55;;;;;;;;;;;;;;;;;;7375726;19;1393;-70
2023/09/05 12:53:23;;;;;;;;;;;;;;;;;;7373003;19;1601;-69
2023/09/05 12:55:51;;;;;;;;;;;;;;;;;;7373429;19;1590;-69
2023/09/05 12:58:19;;;;;;;;;;;;;;;;;;7368138;19;2042;-69
2023/09/05 13:00:47;;;;;;;;;;;;;;;;;;7373697;19;1795;-69
2023/09/05 13:03:15;;;;;;;;;;;;;;;;;;7377186;19;1532;-70
2023/09/05 13:05:44;;;;;;;;;;;;;;;;;;7370956;19;806;-69
2023/09/05 13:08:12;;;;;;;;;;;;;;;;;;7367905;19;1903;-68
2023/09/05 13:10:40;;;;;;;;;;;;;;;;;;7371339;19;840;-69
2023/09/05 13:13:08;;;;;;;;;;;;;;;;;;7369915;19;1686;-70
2023/09/05 13:15:37;;;;;;;;;;;;;;;;;;7376553;19;1633;-70
2023/09/05 13:18:05;;;;;;;;;;;;;;;;;;7370780;19;1860;-69
2023/09/05 13:20:34;;;;;;;;;;;;;;;;;;7376083;19;810;-68
2023/09/05 13:23:02;;;;;;;;;;;;;;;;;;7372286;19;2095;-68
2023/09/05 13:25:32;;;;;;;;;;;;;;;;;;7373337;19;1902;-69
2023/09/05 13:28:02;;;;;;;;;;;;;;;;;;7373651;19;1915;-68
2023/09/05 13:30:30;;;;;;;;;;;;;;;;;;7372595;19;1692;-69
2023/09/05 13:32:58;;;;;;;;;;;;;;;;;;7378675;19;1680;-69
2023/09/05 13:35:28;;;;;;;;;;;;;;;;;;7372526;19;919;-69
2023/09/05 13:37:56;;;;;;;;;;;;;;;;;;7369974;19;1848;-69
2023/09/05 13:40:24;;;;;;;;;;;;;;;;;;7372804;19;876;-69
2023/09/05 13:42:52;;;;;;;;;;;;;;;;;;7374057;19;2052;-69
2023/09/05 13:45:20;;;;;;;;;;;;;;;;;;7374712;19;2201;-70
2023/09/05 13:47:48;;;;;;;;;;;;;;;;;;7369071;19;1822;-70
2023/09/05 13:50:20;;;;;;;;;;;;;;;;;;7375287;19;1991;-69
2023/09/05 13:52:51;;;;;;;;;;;;;;;;;;7374243;19;1747;-69
2023/09/05 13:55:20;;;;;;;;;;;;;;;;;;7371435;19;1998;-69
2023/09/05 13:57:48;;;;;;;;;;;;;;;;;;7369300;19;2074;-69
2023/09/05 14:00:17;;;;;;;;;;;;;;;;;;7372790;19;1816;-69
2023/09/05 14:02:45;;;;;;;;;;;;;;;;;;7373340;19;2080;-68
2023/09/05 14:05:13;;;;;;;;;;;;;;;;;;7373327;19;1939;-68
2023/09/05 14:07:42;;;;;;;;;;;;;;;;;;7368748;19;1954;-68
2023/09/05 14:10:10;;;;;;;;;;;;;;;;;;7371733;19;1500;-68
2023/09/05 14:12:39;;;;;;;;;;;;;;;;;;7368218;19;1735;-69
2023/09/05 14:15:07;;;;;;;;;;;;;;;;;;7372980;19;2094;-69
2023/09/05 14:17:35;;;;;;;;;;;;;;;;;;7368784;19;1949;-68
2023/09/05 14:20:03;;;;;;;;;;;;;;;;;;7372868;19;1834;-69
2023/09/05 14:22:31;;;;;;;;;;;;;;;;;;7371916;19;1677;-69
2023/09/05 14:24:59;;;;;;;;;;;;;;;;;;7369607;19;2088;-69
2023/09/05 14:27:27;;;;;;;;;;;;;;;;;;7372354;19;1573;-70
2023/09/05 14:29:56;;;;;;;;;;;;;;;;;;7365638;19;2173;-70
2023/09/05 14:32:24;;;;;;;;;;;;;;;;;;7365597;19;1848;-70
2023/09/05 14:34:53;;;;;;;;;;;;;;;;;;7372128;19;2008;-68
2023/09/05 14:37:22;;;;;;;;;;;;;;;;;;7373886;19;2023;-69
2023/09/05 14:39:52;;;;;;;;;;;;;;;;;;7379057;19;1853;-69
2023/09/05 14:42:21;;;;;;;;;;;;;;;;;;7375515;19;1181;-69
2023/09/05 14:44:49;;;;;;;;;;;;;;;;;;7374007;19;795;-69
2023/09/05 14:47:17;;;;;;;;;;;;;;;;;;7374427;19;1803;-69
2023/09/05 14:49:45;;;;;;;;;;;;;;;;;;7375390;19;1826;-69
2023/09/05 14:52:13;;;;;;;;;;;;;;;;;;7377093;19;1885;-69
2023/09/05 14:54:42;;;;;;;;;;;;;;;;;;7378830;19;1812;-70
2023/09/05 14:57:10;;;;;;;;;;;;;;;;;;7376271;19;1846;-70
2023/09/05 14:59:38;;;;;;;;;;;;;;;;;;7373750;19;2028;-70
2023/09/05 15:02:06;;;;;;;;;;;;;;;;;;7374209;19;1971;-70
2023/09/05 15:04:34;;;;;;;;;;;;;;;;;;7374690;19;1742;-70
2023/09/05 15:07:04;;;;;;;;;;;;;;;;;;7369008;19;1937;-70
2023/09/05 15:09:32;;;;;;;;;;;;;;;;;;7374538;19;1433;-70
2023/09/05 15:12:01;;;;;;;;;;;;;;;;;;7374417;19;1902;-70
2023/09/05 15:14:29;;;;;;;;;;;;;;;;;;7374925;19;1177;-68
2023/09/05 15:16:57;;;;;;;;;;;;;;;;;;7371053;19;1820;-69
2023/09/05 15:19:25;;;;;;;;;;;;;;;;;;7376264;19;1852;-69
2023/09/05 15:21:54;;;;;;;;;;;;;;;;;;7377194;19;1652;-67
2023/09/05 15:24:23;;;;;;;;;;;;;;;;;;7371927;19;874;-68
2023/09/05 15:26:51;;;;;;;;;;;;;;;;;;7374873;19;2004;-70
2023/09/05 15:29:19;;;;;;;;;;;;;;;;;;7372944;19;2102;-69
2023/09/05 15:31:47;;;;;;;;;;;;;;;;;;7371957;19;1616;-70
2023/09/05 15:34:16;;;;;;;;;;;;;;;;;;7374279;19;1636;-69
2023/09/05 15:36:45;;;;;;;;;;;;;;;;;;7370958;19;1917;-69
2023/09/05 15:39:13;;;;;;;;;;;;;;;;;;7370864;19;1900;-69
2023/09/05 15:41:41;;;;;;;;;;;;;;;;;;7372621;19;2031;-69
2023/09/05 15:44:09;;;;;;;;;;;;;;;;;;7375697;19;1469;-70
2023/09/05 15:46:39;;;;;;;;;;;;;;;;;;7370347;19;2067;-70
2023/09/05 15:49:07;;;;;;;;;;;;;;;;;;7374542;19;2060;-70
2023/09/05 15:51:35;;;;;;;;;;;;;;;;;;7373019;19;1967;-70
2023/09/05 15:54:04;;;;;;;;;;;;;;;;;;7373638;19;1860;-70
2023/09/05 15:56:32;;;;;;;;;;;;;;;;;;7373790;19;2062;-69
2023/09/05 15:59:00;;;;;;;;;;;;;;;;;;7370699;19;1833;-69
2023/09/05 16:01:28;;;;;;;;;;;;;;;;;;7369978;19;681;-69
2023/09/05 16:03:56;;;;;;;;;;;;;;;;;;7370861;19;790;-69
2023/09/05 16:06:24;;;;;;;;;;;;;;;;;;7370528;19;1268;-69
2023/09/05 16:08:53;;;;;;;;;;;;;;;;;;7373229;19;1665;-69
2023/09/05 16:11:21;;;;;;;;;;;;;;;;;;7372862;19;1641;-69
2023/09/05 16:13:49;;;;;;;;;;;;;;;;;;7369838;19;768;-69
2023/09/05 16:16:18;;;;;;;;;;;;;;;;;;7369412;19;1677;-69
2023/09/05 16:18:46;;;;;;;;;;;;;;;;;;7367203;19;1848;-69
2023/09/05 16:21:14;;;;;;;;;;;;;;;;;;7372140;19;1607;-69
2023/09/05 16:23:42;;;;;;;;;;;;;;;;;;7369552;19;1581;-69
2023/09/05 16:26:10;;;;;;;;;;;;;;;;;;7372209;19;1625;-69
2023/09/05 16:28:38;;;;;;;;;;;;;;;;;;7369810;19;1679;-69
2023/09/05 16:31:07;;;;;;;;;;;;;;;;;;7368239;19;2005;-69
2023/09/05 16:33:35;;;;;;;;;;;;;;;;;;7372690;19;1851;-69
2023/09/05 16:36:03;;;;;;;;;;;;;;;;;;7369129;19;799;-68
2023/09/05 16:38:32;;;;;;;;;;;;;;;;;;7368308;19;1980;-68
2023/09/05 16:41:00;;;;;;;;;;;;;;;;;;7370258;19;1780;-69
2023/09/05 16:43:28;;;;;;;;;;;;;;;;;;7371865;19;1688;-70
2023/09/05 16:45:57;;;;;;;;;;;;;;;;;;7371338;19;1681;-69
2023/09/05 16:48:25;;;;;;;;;;;;;;;;;;7365862;19;1275;-69
2023/09/05 16:50:53;;;;;;;;;;;;;;;;;;7369605;19;1635;-69
2023/09/05 16:53:21;;;;;;;;;;;;;;;;;;7371134;19;1674;-69
2023/09/05 16:55:49;;;;;;;;;;;;;;;;;;7371599;19;1710;-68
2023/09/05 16:58:18;;;;;;;;;;;;;;;;;;7366701;19;1857;-69
2023/09/05 17:00:46;;;;;;;;;;;;;;;;;;7370675;19;1708;-69
2023/09/05 17:03:14;;;;;;;;;;;;;;;;;;7371761;19;1451;-68
2023/09/05 17:05:42;;;;;;;;;;;;;;;;;;7370316;19;1848;-69
2023/09/05 17:08:10;;;;;;;;;;;;;;;;;;7367069;19;1595;-69
2023/09/05 17:10:38;;;;;;;;;;;;;;;;;;7372790;19;1391;-69